Map

Track Data

SID SEASON NUMBER BASIN SUBBASIN NAME ISO_TIME NATURE LAT LON WMO_WIND WMO_PRES WMO_AGENCY TRACK_TYPE DIST2LAND LANDFALL IFLAG USA_AGENCY USA_ATCF_ID USA_LAT USA_LON USA_RECORD USA_STATUS USA_WIND USA_PRES USA_SSHS USA_R34_NE USA_R34_SE USA_R34_SW USA_R34_NW USA_R50_NE USA_R50_SE USA_R50_SW USA_R50_NW USA_R64_NE USA_R64_SE USA_R64_SW USA_R64_NW USA_POCI USA_ROCI USA_RMW USA_EYE TOKYO_LAT TOKYO_LON TOKYO_GRADE TOKYO_WIND TOKYO_PRES TOKYO_R50_DIR TOKYO_R50_LONG TOKYO_R50_SHORT TOKYO_R30_DIR TOKYO_R30_LONG TOKYO_R30_SHORT TOKYO_LAND CMA_LAT CMA_LON CMA_CAT CMA_WIND CMA_PRES HKO_LAT HKO_LON HKO_CAT HKO_WIND HKO_PRES NEWDELHI_LAT NEWDELHI_LON NEWDELHI_GRADE NEWDELHI_WIND NEWDELHI_PRES NEWDELHI_CI NEWDELHI_DP NEWDELHI_POCI REUNION_LAT REUNION_LON REUNION_TYPE REUNION_WIND REUNION_PRES REUNION_TNUM REUNION_CI REUNION_RMW REUNION_R34_NE REUNION_R34_SE REUNION_R34_SW REUNION_R34_NW REUNION_R50_NE REUNION_R50_SE REUNION_R50_SW REUNION_R50_NW REUNION_R64_NE REUNION_R64_SE REUNION_R64_SW REUNION_R64_NW BOM_LAT BOM_LON BOM_TYPE BOM_WIND BOM_PRES BOM_TNUM BOM_CI BOM_RMW BOM_R34_NE BOM_R34_SE BOM_R34_SW BOM_R34_NW BOM_R50_NE BOM_R50_SE BOM_R50_SW BOM_R50_NW BOM_R64_NE BOM_R64_SE BOM_R64_SW BOM_R64_NW BOM_ROCI BOM_POCI BOM_EYE BOM_POS_METHOD BOM_PRES_METHOD NADI_LAT NADI_LON NADI_CAT NADI_WIND NADI_PRES WELLINGTON_LAT WELLINGTON_LON WELLINGTON_WIND WELLINGTON_PRES DS824_LAT DS824_LON DS824_STAGE DS824_WIND DS824_PRES TD9636_LAT TD9636_LON TD9636_STAGE TD9636_WIND TD9636_PRES TD9635_LAT TD9635_LON TD9635_WIND TD9635_PRES TD9635_ROCI NEUMANN_LAT NEUMANN_LON NEUMANN_CLASS NEUMANN_WIND NEUMANN_PRES MLC_LAT MLC_LON MLC_CLASS MLC_WIND MLC_PRES USA_GUST BOM_GUST BOM_GUST_PER REUNION_GUST REUNION_GUST_PER USA_SEAHGT USA_SEARAD_NE USA_SEARAD_SE USA_SEARAD_SW USA_SEARAD_NW STORM_SPEED STORM_DIR
1858254N21273 1858 11 NA GM NOT_NAMED 1858-09-11 06:00:00 TS 21.5000 -87.5000 main 11 11 _____________O -1 21.5000 -87.5000 TD 30 6 0
1858254N21273 1858 11 NA GM NOT_NAMED 1858-09-11 09:00:00 TS 21.8125 -87.5000 main 39 39 _____________P -1 21.8125 -87.5000 TD 30 6 1
1858254N21273 1858 11 NA GM NOT_NAMED 1858-09-11 12:00:00 TS 22.1000 -87.5000 main 70 70 _____________O -1 22.1000 -87.5000 TD 30 5 3
1858254N21273 1858 11 NA GM NOT_NAMED 1858-09-11 15:00:00 TS 22.3500 -87.5000 main 102 91 _____________P -1 22.3500 -87.5000 TD 30 5 2
1858254N21273 1858 11 NA GM NOT_NAMED 1858-09-11 18:00:00 TS 22.6000 -87.5000 main 124 124 _____________O -1 22.6000 -87.5000 TD 30 6 0
1858254N21273 1858 11 NA GM NOT_NAMED 1858-09-11 21:00:00 TS 22.9000 -87.5000 main 157 157 _____________P -1 22.9000 -87.5000 TD 30 6 1
1858254N21273 1858 11 NA GM NOT_NAMED 1858-09-12 00:00:00 TS 23.2000 -87.5000 main 191 191 _____________O -1 23.2000 -87.5000 TD 30 5 0
1858254N21273 1858 11 NA GM NOT_NAMED 1858-09-12 03:00:00 TS 23.4425 -87.5000 main 213 213 _____________P -1 23.4425 -87.5000 TD 30 5 2
1858254N21273 1858 11 NA GM NOT_NAMED 1858-09-12 06:00:00 TS 23.7000 -87.5000 main 246 246 _____________O -1 23.7000 -87.5000 TD 30 6 359
1858254N21273 1858 11 NA GM NOT_NAMED 1858-09-12 09:00:00 TS 24.0425 -87.5074 main 280 280 _____________P -1 24.0425 -87.5074 TD 30 7 0
1858254N21273 1858 11 NA GM NOT_NAMED 1858-09-12 12:00:00 TS 24.4000 -87.5000 main 324 324 _____________O -1 24.4000 -87.5000 TD 30 7 5
1858254N21273 1858 11 NA GM NOT_NAMED 1858-09-12 15:00:00 TS 24.7075 -87.4501 main 358 358 _____________P -1 24.7075 -87.4501 TD 32 6 8
1858254N21273 1858 11 NA GM NOT_NAMED 1858-09-12 18:00:00 TS 25.0000 -87.4000 main 392 392 _____________O -1 25.0000 -87.4000 TS 35 6 3
1858254N21273 1858 11 NA GM NOT_NAMED 1858-09-12 21:00:00 TS 25.3000 -87.3999 main 425 415 _____________P -1 25.3000 -87.3999 TS 35 6 1
1858254N21273 1858 11 NA GM NOT_NAMED 1858-09-13 00:00:00 TS 25.6000 -87.4000 main 415 384 _____________O -1 25.6000 -87.4000 TS 35 6 2
1858254N21273 1858 11 NA GM NOT_NAMED 1858-09-13 03:00:00 TS 25.9150 -87.3725 main 384 359 _____________P -1 25.9150 -87.3725 TS 37 6 8
1858254N21273 1858 11 NA GM NOT_NAMED 1858-09-13 06:00:00 TS 26.2000 -87.3000 main 359 345 _____________O -1 26.2000 -87.3000 TS 40 5 20
1858254N21273 1858 11 NA GM NOT_NAMED 1858-09-13 09:00:00 TS 26.4225 -87.1650 main 345 338 _____________P -1 26.4225 -87.1650 TS 42 5 34
1858254N21273 1858 11 NA GM NOT_NAMED 1858-09-13 12:00:00 TS 26.6000 -87.0000 main 338 335 _____________O -1 26.6000 -87.0000 TS 45 4 42
1858254N21273 1858 11 NA GM NOT_NAMED 1858-09-13 15:00:00 TS 26.7350 -86.8498 main 341 332 _____________P -1 26.7350 -86.8498 TS 47 4 42
1858254N21273 1858 11 NA GM NOT_NAMED 1858-09-13 18:00:00 TS 26.9000 -86.7000 main 332 302 _____________O -1 26.9000 -86.7000 TS 50 5 31
1858254N21273 1858 11 NA GM NOT_NAMED 1858-09-13 21:00:00 TS 27.1850 -86.5426 main 299 299 _____________P -1 27.1850 -86.5426 TS 50 8 102
1858254N21273 1858 11 NA GM NOT_NAMED 1858-09-14 00:00:00 TS 26.7333 -85.8000 60 hurdat_atl main 316 272 O____________O hurdat_atl AL031858 25.2000 -84.6000 TS 60 0 27.5000 -86.4000 TS 50 12 114
1858254N21273 1858 11 NA GM NOT_NAMED 1858-09-14 03:00:00 TS 26.6859 -85.2952 main 272 224 P____________P AL031858 25.6069 -84.2608 TS 60 0 27.7648 -86.3297 TS 50 9 86
1858254N21273 1858 11 NA GM NOT_NAMED 1858-09-14 06:00:00 TS 26.8000 -84.8200 60 hurdat_atl main 224 170 O____________O hurdat_atl AL031858 26.0000 -83.9000 TS 60 0 28.0000 -86.2000 TS 50 9 71
1858254N21273 1858 11 NA GM NOT_NAMED 1858-09-14 09:00:00 TS 26.9998 -84.2926 main 170 113 P____________P AL031858 26.3920 -83.5063 TS 60 0 28.2153 -85.8652 TS 52 10 54
1858254N21273 1858 11 NA GM NOT_NAMED 1858-09-14 12:00:00 TS 27.4000 -83.9000 60 hurdat_atl main 113 68 O____________O hurdat_atl AL031858 26.9000 -83.1000 TS 60 0 28.4000 -85.5000 TS 55 11 35
1858254N21273 1858 11 NA GM NOT_NAMED 1858-09-14 15:00:00 TS 27.9191 -83.5641 60 hurdat_atl main 68 29 O____________P hurdat_atl AL031858 27.6000 -82.7000 L TS 60 0 28.5573 -85.2922 TS 57 11 45
1858254N21273 1858 11 NA GM NOT_NAMED 1858-09-14 18:00:00 TS 28.1667 -83.0333 50 hurdat_atl main 22 0 O____________O hurdat_atl AL031858 27.9000 -82.0000 TS 50 0 28.7000 -85.1000 TS 60 11 57
1858254N21273 1858 11 NA NA NOT_NAMED 1858-09-14 21:00:00 TS 28.5180 -82.5220 main 0 0 P____________P AL031858 28.3519 -81.3793 TS 50 0 28.8501 -84.8075 TS 62 12 49
1858254N21273 1858 11 NA NA NOT_NAMED 1858-09-15 00:00:00 TS 28.9333 -82.0333 50 hurdat_atl main 0 0 O____________O hurdat_atl AL031858 28.9000 -80.8000 TS 50 0 29.0000 -84.5000 HU 65 11 46
1858254N21273 1858 11 NA NA NOT_NAMED 1858-09-15 03:00:00 TS 29.2993 -81.5858 main 0 0 P____________P AL031858 29.4348 -80.1920 TS 55 0 29.0283 -84.3735 HU 62 12 45
1858254N21273 1858 11 NA NA NOT_NAMED 1858-09-15 06:00:00 TS 29.7667 -81.0667 60 hurdat_atl main 19 19 O____________O hurdat_atl AL031858 30.0000 -79.6000 TS 60 0 29.3000 -84.0000 TS 60 16 43
1858254N21273 1858 11 NA NA NOT_NAMED 1858-09-15 09:00:00 TS 30.4412 -80.3598 main 101 101 P____________P AL031858 30.5921 -79.0492 TS 70 1 30.1394 -82.9811 TS 55 19 42
1858254N21273 1858 11 NA NA NOT_NAMED 1858-09-15 12:00:00 TS 31.2000 -79.5667 80 hurdat_atl main 145 129 O____________O hurdat_atl AL031858 31.2000 -78.5000 HU 80 1 31.2000 -81.7000 TS 50 20 42
1858254N21273 1858 11 NA NA NOT_NAMED 1858-09-15 15:00:00 TS 31.9010 -78.8406 main 134 114 P____________P AL031858 31.7695 -77.9282 HU 85 2 32.1641 -80.6655 TS 57 19 43
1858254N21273 1858 11 NA NA NOT_NAMED 1858-09-15 18:00:00 TS 32.6000 -78.0333 90 hurdat_atl main 130 107 O____________O hurdat_atl AL031858 32.4000 -77.3000 HU 90 2 33.0000 -79.5000 HU 65 21 49
1858254N21273 1858 11 NA NA NOT_NAMED 1858-09-15 21:00:00 TS 33.2687 -77.0011 main 114 90 P____________P AL031858 33.1404 -76.5498 HU 90 2 33.5254 -77.9039 HU 70 22 51
1858254N21273 1858 11 NA NA NOT_NAMED 1858-09-16 00:00:00 TS 34.0000 -75.9667 90 hurdat_atl main 90 84 O____________O hurdat_atl AL031858 34.0000 -75.8000 HU 90 2 34.0000 -76.3000 HU 75 22 45
1858254N21273 1858 11 NA NA NOT_NAMED 1858-09-16 03:00:00 TS 34.8405 -75.1333 main 104 84 P____________P AL031858 34.9318 -75.1823 HU 90 2 34.6579 -75.0352 HU 80 22 35
1858254N21273 1858 11 NA NA NOT_NAMED 1858-09-16 06:00:00 TS 35.8333 -74.4000 90 hurdat_atl main 98 98 O____________O hurdat_atl AL031858 36.0000 -74.6000 HU 90 2 35.5000 -74.0000 HU 85 24 30
1858254N21273 1858 11 NA NA NOT_NAMED 1858-09-16 09:00:00 TS 36.9079 -73.6611 main 187 175 P____________P AL031858 37.1820 -73.9573 HU 85 2 36.3595 -73.0687 HU 85 27 26
1858254N21273 1858 11 NA NA NOT_NAMED 1858-09-16 12:00:00 TS 38.2333 -72.9667 80 hurdat_atl main 178 112 O____________O hurdat_atl AL031858 38.5000 -73.3000 HU 80 1 37.7000 -72.3000 HU 85 32 19
1858254N21273 1858 11 NA NA NOT_NAMED 1858-09-16 15:00:00 TS 39.8966 -72.3392 main 103 22 P____________P AL031858 39.9118 -72.6262 HU 80 1 39.8662 -71.7652 HU 75 36 16
1858254N21273 1858 11 NA NA NOT_NAMED 1858-09-16 17:00:00 TS 41.1181 -71.9064 80 hurdat_atl main 22 0 O____________P hurdat_atl AL031858 40.9000 -72.2000 L HU 80 1 41.5544 -71.3192 HU 68 38 15
1858254N21273 1858 11 NA NA NOT_NAMED 1858-09-16 18:00:00 TS 41.7333 -71.6667 70 979 hurdat_atl main 0 0 O____________O hurdat_atl AL031858 41.4000 -72.0000 L HU 70 979 1 42.4000 -71.0000 HU 65 42 20
1858254N21273 1858 11 NA NA NOT_NAMED 1858-09-16 21:00:00 TS 43.7448 -70.5912 main 0 0 P____________P AL031858 43.2772 -71.1627 HU 60 0 44.6800 -69.4482 HU 57 46 23
1858254N21273 1858 11 NA NA NOT_NAMED 1858-09-17 00:00:00 TS 46.0000 -69.1667 50 hurdat_atl main 0 0 O____________O hurdat_atl AL031858 45.5000 -70.0000 TS 50 0 47.0000 -67.5000 TS 50 50 25
1858254N21273 1858 11 NA NA NOT_NAMED 1858-09-17 03:00:00 TS 48.3277 -67.5763 main 0 0 P____________P AL031858 47.7612 -68.5974 TS 45 0 49.4608 -65.5340 TS 45 52 25
1858254N21273 1858 11 NA NA NOT_NAMED 1858-09-17 06:00:00 TS 50.6667 -65.8333 40 hurdat_atl main 0 O____________O hurdat_atl AL031858 50.0000 -67.0000 TS 40 0 52.0000 -63.5000 TS 40 52 25

About IBTrACS Database

This database is a web-friendly format of International Best Track Archive for Climate Stewardship (IBTrACS), a global best track data archive curated by NOAA dating back to 1842.

Updated: 2021-10-25